New Orleans, LA (70195)

12:17 PM CDT on September 19, 2014 (GMT -0500)
Mid City Station | Change Station
CLOSE
Current Station
Personal Weather Station
Location: New Orleans, LA
Elevation: 25 ft
Nearby Weather Stations

Elev 25 ft 29.98 °N, 90.08 °W | Updated 7 seconds ago

Mostly Cloudy
Mostly Cloudy
86.7 °F
Feels Like 95 °F
N
5.0
Wind Variable Wind from South
Gusts 10.0 mph

Today
High -- | Low -- °F
--% Chance of Precip.
Yesterday
High -- | Low -- °F
Precip. -- in
6:47 AM 7:00 PM
Waning Crescent, 18% visible
Pressure 29.96 in
Visibility 10.0 miles
Clouds Scattered Clouds 3200 ft
Heat Index 95 °F
Dew Point 74 °F
Humidity 67%
Rainfall 0.36 in
Snow Depth Not available.
UV 8 out of 12
Pollen 8.60 out of 12
Ozone Good
PM2.5 Moderate
Flu Activity Not available.
METAR KNEW 191653Z 08012KT 10SM SCT032 29/21 A2998 RMK AO2 SLP145 T02890211

More Conditions Fewer Conditions

Pressure 29.96 in
Visibility 10.0 miles
Clouds Scattered Clouds 3200 ft
Heat Index 95 °F
Dew Point 74 °F
Humidity 67%
Rainfall 0.36 in
Snow Depth Not available.
UV 8 out of 12
Pollen 8.60 out of 12
Ozone Good
PM2.5 Moderate
Flu Activity Not available.
METAR KNEW 191653Z 08012KT 10SM SCT032 29/21 A2998 RMK AO2 SLP145 T02890211

More Conditions Fewer Conditions

10-Day Weather Forecast

Almanac

Astronomy

Sep. 19, 2014 Rise Set
Actual Time 6:47 AM CDT 7:00 PM CDT
Civil Twilight 6:23 AM CDT 7:24 PM CDT
Nautical Twilight 5:55 AM CDT 7:52 PM CDT
Astronomical Twilight 5:27 AM CDT 8:20 PM CDT
Moon 2:47 AM CDT 4:16 PM CDT
Length of Visible Light 13h 01m
Length of Day
12h 13m
Tomorrow will be 1m 48s shorter.
Waning Crescent, 18% of the Moon is Illuminated
Today
Waning Crescent
Sep 24
New
Oct 1
First Quarter
Oct 8
Full
Oct 15
Last Quarter

Today's Extremes

State Highs State Lows

Community

WunderPhotos

Upload Photos

1,754,655 photos uploaded!

Nearby

Air Quality

  Air Quality AQ Index Pollutant
Yesterday Good
PM2.5
Yesterday Good
OZONE
Current Moderate
PM2.5
Current Good
OZONE
Friday Moderate
PM2.5
Friday Good
OZONE
Saturday Moderate
PM2.5
Saturday Moderate
OZONE

Snow Depth

Station Depth Elevation
No new snow has been reported.

Earthquake Activity

City Distance Mag. Time & Date
No recent earthquake activity has been reported nearby.
Minimum magnitude displayed is 2.5.

Coastal Water Temperatures

Place Temperature
New Canal, LA 82.0 °F
Shell Beach, LA 78.1 °F
Bayou Gauche, LA 82.9 °F

Nearby Weather Stations